sensor_id;sensor_type;location;lat;lon;timestamp;pressure;altitude;pressure_sealevel;temperature;humidity
59009;BME280;44794;42.652;23.318;2023-11-19T00:00:30;94517.38;;;3.17;100.00
59009;BME280;44794;42.652;23.318;2023-11-19T00:02:55;94523.34;;;3.18;100.00
59009;BME280;44794;42.652;23.318;2023-11-19T00:05:20;94519.25;;;3.14;100.00
59009;BME280;44794;42.652;23.318;2023-11-19T00:07:46;94512.25;;;3.17;100.00
59009;BME280;44794;42.652;23.318;2023-11-19T00:10:13;94520.78;;;3.18;100.00
59009;BME280;44794;42.652;23.318;2023-11-19T00:12:41;94527.88;;;3.13;100.00
59009;BME280;44794;42.652;23.318;2023-11-19T00:15:07;94517.47;;;3.16;100.00
59009;BME280;44794;42.652;23.318;2023-11-19T00:17:37;94504.50;;;3.19;100.00
59009;BME280;44794;42.652;23.318;2023-11-19T00:20:03;94514.00;;;3.17;100.00
59009;BME280;44794;42.652;23.318;2023-11-19T00:22:31;94531.81;;;3.20;100.00
59009;BME280;44794;42.652;23.318;2023-11-19T00:24:56;94517.94;;;3.24;100.00
59009;BME280;44794;42.652;23.318;2023-11-19T00:27:22;94510.44;;;3.19;100.00
59009;BME280;44794;42.652;23.318;2023-11-19T00:29:47;94520.78;;;3.18;100.00
59009;BME280;44794;42.652;23.318;2023-11-19T00:32:12;94514.91;;;3.16;100.00
59009;BME280;44794;42.652;23.318;2023-11-19T00:34:38;94535.22;;;3.20;100.00
59009;BME280;44794;42.652;23.318;2023-11-19T00:37:03;94519.34;;;3.12;100.00
59009;BME280;44794;42.652;23.318;2023-11-19T00:39:29;94531.25;;;3.13;100.00
59009;BME280;44794;42.652;23.318;2023-11-19T00:41:54;94538.88;;;3.15;100.00
59009;BME280;44794;42.652;23.318;2023-11-19T00:44:20;94534.59;;;3.15;100.00
59009;BME280;44794;42.652;23.318;2023-11-19T00:46:45;94539.03;;;3.12;100.00
59009;BME280;44794;42.652;23.318;2023-11-19T00:49:10;94530.22;;;3.17;100.00
59009;BME280;44794;42.652;23.318;2023-11-19T00:51:37;94532.84;;;3.16;100.00
59009;BME280;44794;42.652;23.318;2023-11-19T00:54:03;94527.25;;;3.08;100.00
59009;BME280;44794;42.652;23.318;2023-11-19T00:56:28;94528.91;;;3.09;100.00
59009;BME280;44794;42.652;23.318;2023-11-19T00:58:54;94526.50;;;3.06;100.00
59009;BME280;44794;42.652;23.318;2023-11-19T01:01:19;94520.44;;;3.07;100.00
59009;BME280;44794;42.652;23.318;2023-11-19T01:03:45;94525.38;;;3.11;100.00
59009;BME280;44794;42.652;23.318;2023-11-19T01:06:10;94526.81;;;3.17;100.00
59009;BME280;44794;42.652;23.318;2023-11-19T01:08:35;94534.88;;;3.09;100.00
59009;BME280;44794;42.652;23.318;2023-11-19T01:11:01;94539.84;;;3.12;100.00
59009;BME280;44794;42.652;23.318;2023-11-19T01:13:27;94542.44;;;3.12;100.00
59009;BME280;44794;42.652;23.318;2023-11-19T01:15:52;94539.78;;;3.14;100.00
59009;BME280;44794;42.652;23.318;2023-11-19T01:18:18;94537.59;;;3.06;100.00
59009;BME280;44794;42.652;23.318;2023-11-19T01:20:43;94515.31;;;3.07;100.00
59009;BME280;44794;42.652;23.318;2023-11-19T01:23:09;94538.28;;;3.10;100.00
59009;BME280;44794;42.652;23.318;2023-11-19T01:25:34;94538.34;;;3.08;100.00
59009;BME280;44794;42.652;23.318;2023-11-19T01:28:00;94531.34;;;3.12;100.00
59009;BME280;44794;42.652;23.318;2023-11-19T01:30:27;94534.72;;;3.12;100.00
59009;BME280;44794;42.652;23.318;2023-11-19T01:32:53;94551.09;;;3.10;100.00
59009;BME280;44794;42.652;23.318;2023-11-19T01:35:18;94549.44;;;3.09;100.00
59009;BME280;44794;42.652;23.318;2023-11-19T01:37:43;94549.59;;;3.06;100.00
59009;BME280;44794;42.652;23.318;2023-11-19T01:40:09;94553.75;;;3.08;100.00
59009;BME280;44794;42.652;23.318;2023-11-19T01:42:40;94551.59;;;2.99;100.00
59009;BME280;44794;42.652;23.318;2023-11-19T01:45:06;94544.66;;;3.01;100.00
59009;BME280;44794;42.652;23.318;2023-11-19T01:47:33;94541.25;;;3.01;100.00
59009;BME280;44794;42.652;23.318;2023-11-19T01:49:59;94552.50;;;2.98;100.00
59009;BME280;44794;42.652;23.318;2023-11-19T01:52:25;94561.16;;;2.96;100.00
59009;BME280;44794;42.652;23.318;2023-11-19T01:54:52;94563.66;;;2.97;100.00
59009;BME280;44794;42.652;23.318;2023-11-19T01:57:18;94568.94;;;2.95;100.00
59009;BME280;44794;42.652;23.318;2023-11-19T01:59:44;94580.09;;;2.94;100.00
59009;BME280;44794;42.652;23.318;2023-11-19T02:02:10;94569.66;;;2.96;100.00
59009;BME280;44794;42.652;23.318;2023-11-19T02:04:35;94579.72;;;3.01;100.00
59009;BME280;44794;42.652;23.318;2023-11-19T02:07:01;94569.94;;;3.09;100.00
59009;BME280;44794;42.652;23.318;2023-11-19T02:09:26;94546.25;;;3.04;100.00
59009;BME280;44794;42.652;23.318;2023-11-19T02:11:52;94545.66;;;2.99;100.00
59009;BME280;44794;42.652;23.318;2023-11-19T02:14:23;94552.66;;;2.96;100.00
59009;BME280;44794;42.652;23.318;2023-11-19T02:16:51;94555.41;;;2.91;100.00
59009;BME280;44794;42.652;23.318;2023-11-19T02:19:19;94536.97;;;2.83;100.00
59009;BME280;44794;42.652;23.318;2023-11-19T02:21:44;94530.19;;;2.82;100.00
59009;BME280;44794;42.652;23.318;2023-11-19T02:24:12;94535.31;;;2.82;100.00
59009;BME280;44794;42.652;23.318;2023-11-19T02:26:59;94537.88;;;2.82;100.00
59009;BME280;44794;42.652;23.318;2023-11-19T02:29:31;94551.59;;;2.81;100.00
59009;BME280;44794;42.652;23.318;2023-11-19T02:31:56;94556.78;;;2.80;100.00
59009;BME280;44794;42.652;23.318;2023-11-19T02:34:21;94555.69;;;2.85;100.00
59009;BME280;44794;42.652;23.318;2023-11-19T02:36:47;94547.50;;;2.77;100.00
59009;BME280;44794;42.652;23.318;2023-11-19T02:39:12;94545.69;;;2.79;100.00
59009;BME280;44794;42.652;23.318;2023-11-19T02:41:39;94554.44;;;2.75;100.00
59009;BME280;44794;42.652;23.318;2023-11-19T02:44:06;94562.31;;;2.71;100.00
59009;BME280;44794;42.652;23.318;2023-11-19T02:46:31;94559.91;;;2.68;100.00
59009;BME280;44794;42.652;23.318;2023-11-19T02:48:57;94548.47;;;2.56;100.00
59009;BME280;44794;42.652;23.318;2023-11-19T02:51:22;94550.19;;;2.56;100.00
59009;BME280;44794;42.652;23.318;2023-11-19T02:53:48;94553.09;;;2.48;100.00
59009;BME280;44794;42.652;23.318;2023-11-19T02:56:13;94544.09;;;2.40;100.00
59009;BME280;44794;42.652;23.318;2023-11-19T02:58:52;94534.84;;;2.36;100.00
59009;BME280;44794;42.652;23.318;2023-11-19T03:01:24;94534.22;;;2.31;100.00
59009;BME280;44794;42.652;23.318;2023-11-19T03:03:58;94525.06;;;2.25;100.00
59009;BME280;44794;42.652;23.318;2023-11-19T03:06:24;94530.19;;;2.25;100.00
59009;BME280;44794;42.652;23.318;2023-11-19T03:08:49;94529.31;;;2.26;100.00
59009;BME280;44794;42.652;23.318;2023-11-19T03:11:15;94527.53;;;2.28;100.00
59009;BME280;44794;42.652;23.318;2023-11-19T03:13:40;94535.94;;;2.30;100.00
59009;BME280;44794;42.652;23.318;2023-11-19T03:16:07;94536.03;;;2.29;100.00
59009;BME280;44794;42.652;23.318;2023-11-19T03:18:32;94535.13;;;2.30;100.00
59009;BME280;44794;42.652;23.318;2023-11-19T03:20:58;94505.44;;;2.26;100.00
59009;BME280;44794;42.652;23.318;2023-11-19T03:23:24;94532.63;;;2.28;100.00
59009;BME280;44794;42.652;23.318;2023-11-19T03:25:50;94531.09;;;2.24;100.00
59009;BME280;44794;42.652;23.318;2023-11-19T03:28:15;94546.34;;;2.27;100.00
59009;BME280;44794;42.652;23.318;2023-11-19T03:30:41;94534.50;;;2.25;100.00
59009;BME280;44794;42.652;23.318;2023-11-19T03:33:07;94537.25;;;2.21;100.00
59009;BME280;44794;42.652;23.318;2023-11-19T03:35:32;94536.41;;;2.20;100.00
59009;BME280;44794;42.652;23.318;2023-11-19T03:37:58;94533.38;;;2.30;100.00
59009;BME280;44794;42.652;23.318;2023-11-19T03:40:23;94544.28;;;2.35;100.00
59009;BME280;44794;42.652;23.318;2023-11-19T03:42:50;94540.25;;;2.30;100.00
59009;BME280;44794;42.652;23.318;2023-11-19T03:45:15;94551.31;;;2.30;100.00
59009;BME280;44794;42.652;23.318;2023-11-19T03:47:41;94543.63;;;2.30;100.00
59009;BME280;44794;42.652;23.318;2023-11-19T03:50:07;94563.13;;;2.34;100.00
59009;BME280;44794;42.652;23.318;2023-11-19T03:52:35;94562.91;;;2.39;100.00
59009;BME280;44794;42.652;23.318;2023-11-19T03:55:01;94577.25;;;2.43;100.00
59009;BME280;44794;42.652;23.318;2023-11-19T03:57:28;94572.00;;;2.46;100.00
59009;BME280;44794;42.652;23.318;2023-11-19T03:59:53;94567.06;;;2.41;100.00
59009;BME280;44794;42.652;23.318;2023-11-19T04:02:19;94567.06;;;2.41;100.00
59009;BME280;44794;42.652;23.318;2023-11-19T04:04:44;94569.06;;;2.35;100.00
59009;BME280;44794;42.652;23.318;2023-11-19T04:07:09;94559.06;;;2.29;100.00
59009;BME280;44794;42.652;23.318;2023-11-19T04:09:35;94575.06;;;2.34;100.00
59009;BME280;44794;42.652;23.318;2023-11-19T04:12:03;94575.03;;;2.35;100.00
59009;BME280;44794;42.652;23.318;2023-11-19T04:14:28;94574.59;;;2.44;100.00
59009;BME280;44794;42.652;23.318;2023-11-19T04:16:54;94586.34;;;2.50;100.00
59009;BME280;44794;42.652;23.318;2023-11-19T04:19:19;94593.81;;;2.54;100.00
59009;BME280;44794;42.652;23.318;2023-11-19T04:21:45;94592.78;;;2.58;100.00
59009;BME280;44794;42.652;23.318;2023-11-19T04:24:11;94587.94;;;2.52;100.00
59009;BME280;44794;42.652;23.318;2023-11-19T04:26:41;94576.78;;;2.53;100.00
59009;BME280;44794;42.652;23.318;2023-11-19T04:29:09;94576.84;;;2.52;100.00
59009;BME280;44794;42.652;23.318;2023-11-19T04:31:36;94587.81;;;2.55;100.00
59009;BME280;44794;42.652;23.318;2023-11-19T04:34:01;94597.00;;;2.59;100.00
59009;BME280;44794;42.652;23.318;2023-11-19T04:36:27;94597.59;;;2.66;100.00
59009;BME280;44794;42.652;23.318;2023-11-19T04:38:52;94609.72;;;2.62;100.00
59009;BME280;44794;42.652;23.318;2023-11-19T04:41:18;94603.81;;;2.60;100.00
59009;BME280;44794;42.652;23.318;2023-11-19T04:43:43;94597.88;;;2.60;100.00
59009;BME280;44794;42.652;23.318;2023-11-19T04:46:11;94601.81;;;2.67;100.00
59009;BME280;44794;42.652;23.318;2023-11-19T04:48:37;94608.66;;;2.66;100.00
59009;BME280;44794;42.652;23.318;2023-11-19T04:51:04;94609.72;;;2.62;100.00
59009;BME280;44794;42.652;23.318;2023-11-19T04:53:30;94610.47;;;2.64;100.00
59009;BME280;44794;42.652;23.318;2023-11-19T04:55:55;94613.97;;;2.62;100.00
59009;BME280;44794;42.652;23.318;2023-11-19T04:58:21;94618.16;;;2.64;100.00
59009;BME280;44794;42.652;23.318;2023-11-19T05:00:47;94613.59;;;2.71;100.00
59009;BME280;44794;42.652;23.318;2023-11-19T05:03:13;94624.91;;;2.67;100.00
59009;BME280;44794;42.652;23.318;2023-11-19T05:05:38;94628.97;;;2.71;100.00
59009;BME280;44794;42.652;23.318;2023-11-19T05:08:03;94637.63;;;2.68;100.00
59009;BME280;44794;42.652;23.318;2023-11-19T05:10:30;94652.25;;;2.66;100.00
59009;BME280;44794;42.652;23.318;2023-11-19T05:12:55;94660.59;;;2.71;100.00
59009;BME280;44794;42.652;23.318;2023-11-19T05:15:22;94656.41;;;2.69;100.00
59009;BME280;44794;42.652;23.318;2023-11-19T05:17:47;94655.50;;;2.70;100.00
59009;BME280;44794;42.652;23.318;2023-11-19T05:20:13;94651.84;;;2.75;100.00
59009;BME280;44794;42.652;23.318;2023-11-19T05:22:42;94657.88;;;2.74;100.00
59009;BME280;44794;42.652;23.318;2023-11-19T05:25:08;94645.22;;;2.71;100.00
59009;BME280;44794;42.652;23.318;2023-11-19T05:27:35;94640.00;;;2.73;100.00
59009;BME280;44794;42.652;23.318;2023-11-19T05:30:01;94639.81;;;2.77;100.00
59009;BME280;44794;42.652;23.318;2023-11-19T05:32:27;94642.66;;;2.71;100.00
59009;BME280;44794;42.652;23.318;2023-11-19T05:34:52;94642.75;;;2.68;100.00
59009;BME280;44794;42.652;23.318;2023-11-19T05:37:17;94644.53;;;2.66;100.00
59009;BME280;44794;42.652;23.318;2023-11-19T05:39:44;94663.34;;;2.67;100.00
59009;BME280;44794;42.652;23.318;2023-11-19T05:42:10;94651.06;;;2.73;100.00
59009;BME280;44794;42.652;23.318;2023-11-19T05:44:35;94659.03;;;2.67;100.00
59009;BME280;44794;42.652;23.318;2023-11-19T05:47:02;94649.38;;;2.74;100.00
59009;BME280;44794;42.652;23.318;2023-11-19T05:49:27;94659.03;;;2.67;100.00
59009;BME280;44794;42.652;23.318;2023-11-19T05:51:52;94660.59;;;2.71;100.00
59009;BME280;44794;42.652;23.318;2023-11-19T05:54:21;94655.31;;;2.74;100.00
59009;BME280;44794;42.652;23.318;2023-11-19T05:56:49;94663.34;;;2.67;100.00
59009;BME280;44794;42.652;23.318;2023-11-19T05:59:15;94662.38;;;2.69;100.00
59009;BME280;44794;42.652;23.318;2023-11-19T06:01:43;94644.34;;;2.71;100.00
59009;BME280;44794;42.652;23.318;2023-11-19T06:04:08;94658.78;;;2.73;100.00
59009;BME280;44794;42.652;23.318;2023-11-19T06:06:34;94656.28;;;2.72;100.00
59009;BME280;44794;42.652;23.318;2023-11-19T06:08:59;94676.97;;;2.67;100.00
59009;BME280;44794;42.652;23.318;2023-11-19T06:11:25;94670.97;;;2.68;100.00
59009;BME280;44794;42.652;23.318;2023-11-19T06:13:52;94682.75;;;2.72;100.00
59009;BME280;44794;42.652;23.318;2023-11-19T06:16:18;94678.06;;;2.82;100.00
59009;BME280;44794;42.652;23.318;2023-11-19T06:18:43;94675.03;;;2.72;100.00
59009;BME280;44794;42.652;23.318;2023-11-19T06:21:10;94683.97;;;2.64;100.00
59009;BME280;44794;42.652;23.318;2023-11-19T06:23:35;94678.91;;;2.62;100.00
59009;BME280;44794;42.652;23.318;2023-11-19T06:26:01;94675.28;;;2.68;100.00
59009;BME280;44794;42.652;23.318;2023-11-19T06:28:26;94675.13;;;2.71;100.00
59009;BME280;44794;42.652;23.318;2023-11-19T06:30:52;94674.16;;;2.73;100.00
59009;BME280;44794;42.652;23.318;2023-11-19T06:33:18;94682.03;;;2.69;100.00
59009;BME280;44794;42.652;23.318;2023-11-19T06:35:43;94672.44;;;2.74;100.00
59009;BME280;44794;42.652;23.318;2023-11-19T06:38:09;94661.28;;;2.75;100.00
59009;BME280;44794;42.652;23.318;2023-11-19T06:40:34;94677.50;;;2.75;100.00
59009;BME280;44794;42.652;23.318;2023-11-19T06:43:03;94659.34;;;2.80;100.00
59009;BME280;44794;42.652;23.318;2023-11-19T06:45:29;94667.13;;;2.78;100.00
59009;BME280;44794;42.652;23.318;2023-11-19T06:47:55;94673.25;;;2.74;100.00
59009;BME280;44794;42.652;23.318;2023-11-19T06:50:20;94679.69;;;2.64;100.00
59009;BME280;44794;42.652;23.318;2023-11-19T06:52:46;94697.22;;;2.73;100.00
59009;BME280;44794;42.652;23.318;2023-11-19T06:55:12;94686.97;;;2.73;100.00
59009;BME280;44794;42.652;23.318;2023-11-19T06:57:38;94674.75;;;2.60;100.00
59009;BME280;44794;42.652;23.318;2023-11-19T07:00:04;94678.72;;;2.67;100.00
59009;BME280;44794;42.652;23.318;2023-11-19T07:02:31;94696.53;;;2.70;100.00
59009;BME280;44794;42.652;23.318;2023-11-19T07:04:56;94701.34;;;2.77;100.00
59009;BME280;44794;42.652;23.318;2023-11-19T07:07:22;94694.34;;;2.81;100.00
59009;BME280;44794;42.652;23.318;2023-11-19T07:09:47;94695.69;;;2.89;100.00
59009;BME280;44794;42.652;23.318;2023-11-19T07:12:13;94703.63;;;2.83;100.00
59009;BME280;44794;42.652;23.318;2023-11-19T07:14:39;94712.31;;;2.81;100.00
59009;BME280;44794;42.652;23.318;2023-11-19T07:17:05;94688.91;;;2.68;100.00
59009;BME280;44794;42.652;23.318;2023-11-19T07:19:31;94701.59;;;2.71;100.00
59009;BME280;44794;42.652;23.318;2023-11-19T07:21:56;94710.44;;;2.84;100.00
59009;BME280;44794;42.652;23.318;2023-11-19T07:24:22;94724.28;;;2.80;100.00
59009;BME280;44794;42.652;23.318;2023-11-19T07:26:48;94714.91;;;2.79;100.00
59009;BME280;44794;42.652;23.318;2023-11-19T07:29:14;94713.28;;;2.78;100.00
59009;BME280;44794;42.652;23.318;2023-11-19T07:31:42;94720.00;;;2.81;100.00
59009;BME280;44794;42.652;23.318;2023-11-19T07:34:09;94722.13;;;2.90;100.00
59009;BME280;44794;42.652;23.318;2023-11-19T07:36:35;94737.84;;;3.02;100.00
59009;BME280;44794;42.652;23.318;2023-11-19T07:39:01;94751.50;;;3.22;99.53
59009;BME280;44794;42.652;23.318;2023-11-19T07:41:27;94744.69;;;3.21;99.44
59009;BME280;44794;42.652;23.318;2023-11-19T07:43:53;94744.06;;;3.16;98.72
59009;BME280;44794;42.652;23.318;2023-11-19T07:46:19;94758.69;;;3.14;98.26
59009;BME280;44794;42.652;23.318;2023-11-19T07:48:45;94741.03;;;3.07;98.01
59009;BME280;44794;42.652;23.318;2023-11-19T07:51:12;94749.78;;;3.03;98.35
59009;BME280;44794;42.652;23.318;2023-11-19T07:53:39;94755.28;;;2.94;98.12
59009;BME280;44794;42.652;23.318;2023-11-19T07:56:06;94771.38;;;2.78;98.03
59009;BME280;44794;42.652;23.318;2023-11-19T07:58:32;94766.00;;;2.84;98.81
59009;BME280;44794;42.652;23.318;2023-11-19T08:00:57;94754.41;;;2.75;98.59
59009;BME280;44794;42.652;23.318;2023-11-19T08:03:23;94751.69;;;2.58;98.81
59009;BME280;44794;42.652;23.318;2023-11-19T08:05:48;94760.75;;;2.67;99.36
59009;BME280;44794;42.652;23.318;2023-11-19T08:08:14;94772.16;;;2.80;99.20
59009;BME280;44794;42.652;23.318;2023-11-19T08:10:40;94768.31;;;2.90;99.45
59009;BME280;44794;42.652;23.318;2023-11-19T08:13:06;94753.78;;;2.70;98.08
59009;BME280;44794;42.652;23.318;2023-11-19T08:15:32;94757.94;;;2.73;98.82
59009;BME280;44794;42.652;23.318;2023-11-19T08:17:57;94766.84;;;2.64;98.60
59009;BME280;44794;42.652;23.318;2023-11-19T08:20:23;94769.63;;;2.58;99.01
59009;BME280;44794;42.652;23.318;2023-11-19T08:22:49;94774.81;;;2.78;99.64
59009;BME280;44794;42.652;23.318;2023-11-19T08:25:14;94775.19;;;2.89;99.12
59009;BME280;44794;42.652;23.318;2023-11-19T08:27:39;94768.31;;;2.90;99.16
59009;BME280;44794;42.652;23.318;2023-11-19T08:30:05;94769.78;;;2.95;98.82
59009;BME280;44794;42.652;23.318;2023-11-19T08:32:31;94773.63;;;3.05;98.40
59009;BME280;44794;42.652;23.318;2023-11-19T08:34:57;94771.19;;;3.02;98.37
59009;BME280;44794;42.652;23.318;2023-11-19T08:37:22;94777.72;;;3.09;97.89
59009;BME280;44794;42.652;23.318;2023-11-19T08:39:49;94780.19;;;3.12;97.44
59009;BME280;44794;42.652;23.318;2023-11-19T08:42:14;94784.53;;;3.10;96.84
59009;BME280;44794;42.652;23.318;2023-11-19T08:44:41;94789.22;;;3.00;97.69
59009;BME280;44794;42.652;23.318;2023-11-19T08:47:09;94800.50;;;3.16;97.12
59009;BME280;44794;42.652;23.318;2023-11-19T08:49:35;94782.78;;;3.10;96.21
59009;BME280;44794;42.652;23.318;2023-11-19T08:52:00;94772.19;;;3.38;95.36
59009;BME280;44794;42.652;23.318;2023-11-19T08:54:26;94788.63;;;3.34;93.51
59009;BME280;44794;42.652;23.318;2023-11-19T08:56:51;94801.13;;;3.21;93.43
59009;BME280;44794;42.652;23.318;2023-11-19T08:59:16;94799.66;;;3.16;93.76
59009;BME280;44794;42.652;23.318;2023-11-19T09:01:42;94785.03;;;3.18;93.86
59009;BME280;44794;42.652;23.318;2023-11-19T09:04:08;94779.53;;;3.27;93.13
59009;BME280;44794;42.652;23.318;2023-11-19T09:06:35;94783.97;;;3.42;92.37
59009;BME280;44794;42.652;23.318;2023-11-19T09:09:00;94775.78;;;3.52;92.12
59009;BME280;44794;42.652;23.318;2023-11-19T09:11:28;94777.75;;;3.66;92.13
59009;BME280;44794;42.652;23.318;2023-11-19T09:13:54;94768.59;;;3.78;90.93
59009;BME280;44794;42.652;23.318;2023-11-19T09:16:19;94756.44;;;3.64;90.82
59009;BME280;44794;42.652;23.318;2023-11-19T09:18:45;94751.59;;;3.58;92.79
59009;BME280;44794;42.652;23.318;2023-11-19T09:21:13;94758.34;;;3.78;93.17
59009;BME280;44794;42.652;23.318;2023-11-19T09:23:39;94764.09;;;3.83;92.60
59009;BME280;44794;42.652;23.318;2023-11-19T09:26:05;94780.19;;;3.87;91.62
59009;BME280;44794;42.652;23.318;2023-11-19T09:28:31;94778.06;;;3.96;90.56
59009;BME280;44794;42.652;23.318;2023-11-19T09:30:57;94797.69;;;3.97;90.60
59009;BME280;44794;42.652;23.318;2023-11-19T09:33:24;94797.16;;;3.91;90.44
59009;BME280;44794;42.652;23.318;2023-11-19T09:35:50;94782.28;;;3.97;90.48
59009;BME280;44794;42.652;23.318;2023-11-19T09:38:16;94766.13;;;3.95;89.31
59009;BME280;44794;42.652;23.318;2023-11-19T09:40:42;94758.34;;;3.78;89.22
59009;BME280;44794;42.652;23.318;2023-11-19T09:43:07;94747.34;;;3.57;89.64
59009;BME280;44794;42.652;23.318;2023-11-19T09:45:45;94740.22;;;3.45;91.60
59009;BME280;44794;42.652;23.318;2023-11-19T09:48:16;94734.72;;;3.70;91.54
59009;BME280;44794;42.652;23.318;2023-11-19T09:50:42;94723.75;;;3.85;91.46
59009;BME280;44794;42.652;23.318;2023-11-19T09:53:07;94726.19;;;3.88;91.50
59009;BME280;44794;42.652;23.318;2023-11-19T09:55:32;94717.78;;;4.03;91.11
59009;BME280;44794;42.652;23.318;2023-11-19T09:57:58;94701.78;;;4.32;89.77
59009;BME280;44794;42.652;23.318;2023-11-19T10:00:26;94721.38;;;4.51;87.39
59009;BME280;44794;42.652;23.318;2023-11-19T10:02:54;94709.22;;;4.55;87.87
59009;BME280;44794;42.652;23.318;2023-11-19T10:05:20;94719.03;;;4.81;86.83
59009;BME280;44794;42.652;23.318;2023-11-19T10:07:47;94724.03;;;4.67;84.84
59009;BME280;44794;42.652;23.318;2023-11-19T10:10:12;94723.66;;;4.91;84.81
59009;BME280;44794;42.652;23.318;2023-11-19T10:12:43;94724.34;;;5.27;81.62
59009;BME280;44794;42.652;23.318;2023-11-19T10:15:20;94709.50;;;5.00;79.23
59009;BME280;44794;42.652;23.318;2023-11-19T10:17:46;94718.44;;;4.93;79.52
59009;BME280;44794;42.652;23.318;2023-11-19T10:20:11;94722.25;;;4.86;79.74
59009;BME280;44794;42.652;23.318;2023-11-19T10:22:37;94738.13;;;4.94;80.03
59009;BME280;44794;42.652;23.318;2023-11-19T10:25:05;94721.56;;;4.82;78.62
59009;BME280;44794;42.652;23.318;2023-11-19T10:27:34;94731.91;;;4.47;79.03
59009;BME280;44794;42.652;23.318;2023-11-19T10:30:00;94695.22;;;4.27;81.14
59009;BME280;44794;42.652;23.318;2023-11-19T10:32:25;94704.22;;;4.35;82.04
59009;BME280;44794;42.652;23.318;2023-11-19T10:34:51;94699.28;;;4.14;81.32
59009;BME280;44794;42.652;23.318;2023-11-19T10:37:29;94687.88;;;4.19;82.08
59009;BME280;44794;42.652;23.318;2023-11-19T10:39:57;94686.47;;;4.47;81.06
59009;BME280;44794;42.652;23.318;2023-11-19T10:42:23;94699.53;;;4.43;79.04
59009;BME280;44794;42.652;23.318;2023-11-19T10:44:48;94717.84;;;4.71;78.03
59009;BME280;44794;42.652;23.318;2023-11-19T10:47:14;94713.91;;;4.81;77.62
59009;BME280;44794;42.652;23.318;2023-11-19T10:49:40;94708.47;;;4.70;76.11
59009;BME280;44794;42.652;23.318;2023-11-19T10:52:08;94711.31;;;4.81;76.50
59009;BME280;44794;42.652;23.318;2023-11-19T10:54:34;94714.66;;;4.49;76.65
59009;BME280;44794;42.652;23.318;2023-11-19T10:57:01;94704.91;;;4.39;77.96
59009;BME280;44794;42.652;23.318;2023-11-19T10:59:31;94693.78;;;4.21;77.87
59009;BME280;44794;42.652;23.318;2023-11-19T11:01:57;94705.00;;;4.02;79.13
59009;BME280;44794;42.652;23.318;2023-11-19T11:04:25;94691.63;;;4.12;78.76
59009;BME280;44794;42.652;23.318;2023-11-19T11:06:54;94695.66;;;4.18;79.06
59009;BME280;44794;42.652;23.318;2023-11-19T11:09:20;94675.22;;;4.15;79.02
59009;BME280;44794;42.652;23.318;2023-11-19T11:11:47;94672.22;;;4.07;79.15
59009;BME280;44794;42.652;23.318;2023-11-19T11:14:13;94670.78;;;4.01;79.58
59009;BME280;44794;42.652;23.318;2023-11-19T11:16:43;94646.13;;;3.97;79.79
59009;BME280;44794;42.652;23.318;2023-11-19T11:19:10;94664.88;;;3.99;79.80
59009;BME280;44794;42.652;23.318;2023-11-19T11:21:39;94665.94;;;3.95;79.34
59009;BME280;44794;42.652;23.318;2023-11-19T11:27:02;94659.25;;;4.27;78.78
59009;BME280;44794;42.652;23.318;2023-11-19T11:34:56;94657.81;;;4.38;77.64
59009;BME280;44794;42.652;23.318;2023-11-19T11:37:26;94654.31;;;4.39;77.53
59009;BME280;44794;42.652;23.318;2023-11-19T11:39:57;94655.22;;;4.55;78.71
59009;BME280;44794;42.652;23.318;2023-11-19T11:42:31;94653.91;;;4.63;77.55
59009;BME280;44794;42.652;23.318;2023-11-19T11:45:12;94642.53;;;4.52;76.67
59009;BME280;44794;42.652;23.318;2023-11-19T11:50:13;94623.22;;;4.60;76.92
59009;BME280;44794;42.652;23.318;2023-11-19T11:53:18;94635.69;;;4.68;76.09
59009;BME280;44794;42.652;23.318;2023-11-19T11:58:13;94648.50;;;4.69;75.57
59009;BME280;44794;42.652;23.318;2023-11-19T12:00:40;94653.78;;;4.66;75.58
59009;BME280;44794;42.652;23.318;2023-11-19T12:03:07;94655.34;;;4.86;75.26
59009;BME280;44794;42.652;23.318;2023-11-19T12:05:38;94657.06;;;5.02;73.71
59009;BME280;44794;42.652;23.318;2023-11-19T12:08:06;94653.13;;;4.95;73.60
59009;BME280;44794;42.652;23.318;2023-11-19T12:10:52;94640.28;;;5.11;72.72
59009;BME280;44794;42.652;23.318;2023-11-19T12:13:18;94650.59;;;5.11;71.05
59009;BME280;44794;42.652;23.318;2023-11-19T12:18:29;94641.63;;;5.18;69.04
59009;BME280;44794;42.652;23.318;2023-11-19T12:20:56;94641.63;;;5.18;69.43
59009;BME280;44794;42.652;23.318;2023-11-19T12:23:22;94630.09;;;5.24;69.24
59009;BME280;44794;42.652;23.318;2023-11-19T12:25:48;94627.88;;;5.34;69.08
59009;BME280;44794;42.652;23.318;2023-11-19T12:28:14;94623.25;;;5.40;67.98
59009;BME280;44794;42.652;23.318;2023-11-19T12:30:43;94614.59;;;5.41;66.30
59009;BME280;44794;42.652;23.318;2023-11-19T12:33:09;94632.44;;;5.44;64.52
59009;BME280;44794;42.652;23.318;2023-11-19T12:35:42;94619.84;;;5.55;64.85
59009;BME280;44794;42.652;23.318;2023-11-19T12:38:18;94613.84;;;5.70;64.54
59009;BME280;44794;42.652;23.318;2023-11-19T12:40:43;94610.06;;;5.77;64.49
59009;BME280;44794;42.652;23.318;2023-11-19T12:43:09;94614.59;;;5.72;63.01
59009;BME280;44794;42.652;23.318;2023-11-19T12:45:35;94613.09;;;5.68;63.94
59009;BME280;44794;42.652;23.318;2023-11-19T12:48:05;94619.41;;;5.63;65.47
59009;BME280;44794;42.652;23.318;2023-11-19T12:50:50;94606.47;;;5.64;66.88
59009;BME280;44794;42.652;23.318;2023-11-19T12:53:15;94591.00;;;5.64;69.32
59009;BME280;44794;42.652;23.318;2023-11-19T12:55:41;94598.66;;;5.50;70.31
59009;BME280;44794;42.652;23.318;2023-11-19T12:58:06;94594.81;;;5.42;70.27
59009;BME280;44794;42.652;23.318;2023-11-19T13:00:32;94586.84;;;5.46;71.78
59009;BME280;44794;42.652;23.318;2023-11-19T13:02:57;94592.50;;;5.22;71.30
59009;BME280;44794;42.652;23.318;2023-11-19T13:05:33;94577.91;;;5.22;73.42
59009;BME280;44794;42.652;23.318;2023-11-19T13:10:25;94568.31;;;5.24;75.93